KBNO/BNO METAR and TAF weather

Enter ICAO airport designator
Station Type Date Time Source
KBNO METAR 2020/09/21 05:53 UTC NOAA

KBNO 210553Z AUTO 29006KT 10SM CLR 07/M03 A3006 RMK AO2 SLP164 T00721028 10244 20072 51002


Station Type Date Time Source
KBNO Decoded METAR 2020/09/21 05:53 UTC NOAA

BURNS MUNICIPAL AIRPORT, OR, United States (KBNO) 43-36N 118-57W 1264M
Sep 21, 2020 - 01:53 AM EDT / 2020.09.21 0553 UTC
Wind: from the WNW (290 degrees) at 7 MPH (6 KT):0
Visibility: 10 mile(s):0
Sky conditions: clear
Temperature: 45.0 F (7.2 C)
Dew Point: 27.0 F (-2.8 C)
Relative Humidity: 48%
Pressure (altimeter): 30.06 in. Hg (1017 hPa)
Pressure tendency: 0.01 inches (0.2 hPa) higher than three hours ago
ob: KBNO 210553Z AUTO 29006KT 10SM CLR 07/M03 A3006 RMK AO2 SLP164 T00721028 10244 20072 51002
cycle: 6

Station Type Date Time Source
KBNO TAF 2020/09/21 06:22 UTC NOAA

TAF KBNO 210520Z 2106/2206 VRB06KT P6SM SCT250
FM212000 25008KT P6SM SKC
FM220200 32006KT P6SM SCT150

Example: see airport list